createdAt,value
2019-01-27T00:00:20.276Z,99.90
2019-01-27T00:02:49.406Z,99.90
2019-01-27T00:05:17.371Z,99.90
2019-01-27T00:07:45.435Z,99.90
2019-01-27T00:10:13.713Z,99.90
2019-01-27T00:12:41.761Z,99.90
2019-01-27T00:15:10.390Z,99.90
2019-01-27T00:17:38.542Z,99.90
2019-01-27T00:20:06.515Z,99.90
2019-01-27T00:22:34.890Z,99.90
2019-01-27T00:25:02.828Z,99.90
2019-01-27T00:27:30.805Z,99.90
2019-01-27T00:29:59.006Z,99.90
2019-01-27T00:32:27.074Z,99.90
2019-01-27T00:34:55.248Z,99.90
2019-01-27T00:37:24.573Z,99.90
2019-01-27T00:39:52.622Z,99.90
2019-01-27T00:42:20.692Z,99.90
2019-01-27T00:44:48.868Z,99.90
2019-01-27T00:50:30.332Z,99.90
2019-01-27T00:52:58.329Z,99.90
2019-01-27T00:55:26.416Z,99.90
2019-01-27T00:57:54.466Z,99.90
2019-01-27T01:00:22.457Z,99.90
2019-01-27T01:02:50.631Z,99.90
2019-01-27T01:05:18.808Z,99.90
2019-01-27T01:07:46.777Z,99.90
2019-01-27T01:10:15.365Z,99.90
2019-01-27T01:12:43.473Z,99.90
2019-01-27T01:15:11.501Z,99.90
2019-01-27T01:17:39.757Z,99.90
2019-01-27T01:20:07.849Z,99.90
2019-01-27T01:22:35.926Z,99.90
2019-01-27T01:25:04.388Z,99.90
2019-01-27T01:27:32.475Z,99.90
2019-01-27T01:30:00.963Z,99.90
2019-01-27T01:32:34.155Z,99.90
2019-01-27T01:35:02.224Z,99.90
2019-01-27T01:37:30.266Z,99.90
2019-01-27T01:39:59.473Z,99.60
2019-01-27T01:42:27.460Z,98.60
2019-01-27T01:44:55.413Z,96.50
2019-01-27T01:47:23.499Z,96.30
2019-01-27T01:49:53.134Z,95.80
2019-01-27T01:52:21.049Z,95.60
2019-01-27T01:54:49.241Z,95.10
2019-01-27T01:57:18.184Z,94.40
2019-01-27T01:59:46.315Z,93.50
2019-01-27T02:02:14.390Z,92.30
2019-01-27T02:04:42.438Z,91.90
2019-01-27T02:07:10.503Z,91.10
2019-01-27T02:09:38.707Z,90.80
2019-01-27T02:12:06.646Z,90.50
2019-01-27T02:14:34.748Z,90.80
2019-01-27T02:17:02.923Z,91.30
2019-01-27T02:19:30.890Z,91.60
2019-01-27T02:21:58.863Z,91.60
2019-01-27T02:24:26.837Z,92.00
2019-01-27T02:26:54.903Z,91.50
2019-01-27T02:29:23.181Z,91.50
2019-01-27T02:31:51.133Z,91.60
2019-01-27T02:34:19.221Z,91.50
2019-01-27T02:36:48.244Z,91.70
2019-01-27T02:39:16.294Z,92.10
2019-01-27T02:41:44.260Z,92.30
2019-01-27T02:44:12.431Z,92.70
2019-01-27T02:46:41.931Z,93.10
2019-01-27T02:49:09.906Z,93.30
2019-01-27T02:51:38.284Z,93.90
2019-01-27T02:54:06.552Z,95.90
2019-01-27T02:56:34.528Z,95.80
2019-01-27T02:59:02.585Z,96.10
2019-01-27T03:01:30.547Z,96.30
2019-01-27T03:03:58.641Z,96.70
2019-01-27T03:06:38.170Z,97.10
2019-01-27T03:09:11.170Z,97.30
2019-01-27T03:11:49.491Z,97.60
2019-01-27T03:14:17.423Z,98.00
2019-01-27T03:16:45.423Z,98.10
2019-01-27T03:19:13.504Z,98.40
2019-01-27T03:21:41.449Z,98.50
2019-01-27T03:24:09.512Z,98.60
2019-01-27T03:26:39.310Z,98.70
2019-01-27T03:29:07.298Z,98.90
2019-01-27T03:31:35.596Z,99.00
2019-01-27T03:34:03.540Z,99.30
2019-01-27T03:36:31.531Z,99.40
2019-01-27T03:38:59.681Z,99.50
2019-01-27T03:41:28.676Z,99.70
2019-01-27T03:43:56.771Z,99.90
2019-01-27T03:46:24.814Z,99.90
2019-01-27T03:48:52.812Z,99.90
2019-01-27T03:51:20.986Z,99.90
2019-01-27T03:53:48.934Z,99.90
2019-01-27T03:56:16.926Z,99.90
2019-01-27T03:58:44.997Z,99.90
2019-01-27T04:01:13.042Z,99.90
2019-01-27T04:03:41.038Z,99.90
2019-01-27T04:06:09.016Z,99.90
2019-01-27T04:08:37.191Z,99.90
2019-01-27T04:11:05.358Z,99.90
2019-01-27T04:13:35.159Z,99.90
2019-01-27T04:16:03.225Z,99.90
2019-01-27T04:18:31.417Z,99.90
2019-01-27T04:20:59.357Z,99.90
2019-01-27T04:23:27.335Z,99.90
2019-01-27T04:25:55.323Z,99.90
2019-01-27T04:28:25.077Z,99.90
2019-01-27T04:30:54.111Z,99.70
2019-01-27T04:33:22.106Z,99.70
2019-01-27T04:35:50.659Z,99.60
2019-01-27T04:38:18.756Z,99.80
2019-01-27T04:40:46.928Z,99.90
2019-01-27T04:43:14.972Z,99.80
2019-01-27T04:45:43.071Z,99.90
2019-01-27T04:48:11.042Z,99.90
2019-01-27T04:50:38.982Z,99.90
2019-01-27T04:53:06.979Z,99.90
2019-01-27T04:55:35.025Z,99.90
2019-01-27T04:58:14.073Z,99.90
2019-01-27T05:00:41.743Z,99.90
2019-01-27T05:03:25.136Z,99.90
2019-01-27T05:05:53.146Z,99.90
2019-01-27T05:08:21.290Z,99.90
2019-01-27T05:10:49.260Z,99.50
2019-01-27T05:13:17.464Z,99.70
2019-01-27T05:15:45.844Z,99.70
2019-01-27T05:18:13.914Z,99.90
2019-01-27T05:20:41.961Z,99.90
2019-01-27T05:23:09.956Z,99.90
2019-01-27T05:25:38.107Z,99.90
2019-01-27T05:28:06.509Z,99.80
2019-01-27T05:30:34.478Z,99.90
2019-01-27T05:33:02.831Z,99.80
2019-01-27T05:35:30.827Z,99.90
2019-01-27T05:37:59.107Z,99.90
2019-01-27T05:40:27.262Z,99.90
2019-01-27T05:42:55.245Z,99.90
2019-01-27T05:45:23.317Z,99.90
2019-01-27T05:47:51.391Z,99.90
2019-01-27T05:50:21.554Z,99.90
2019-01-27T05:52:51.433Z,99.90
2019-01-27T05:55:19.393Z,99.90
2019-01-27T05:57:47.436Z,99.90
2019-01-27T06:00:16.031Z,99.90
2019-01-27T06:02:44.020Z,99.90
2019-01-27T06:05:11.962Z,99.90
2019-01-27T06:07:39.960Z,99.90
2019-01-27T06:10:08.029Z,99.90
2019-01-27T06:12:36.078Z,99.90
2019-01-27T06:15:04.376Z,99.90
2019-01-27T06:17:32.326Z,99.90
2019-01-27T06:20:00.320Z,99.90
2019-01-27T06:22:30.011Z,99.90
2019-01-27T06:24:57.978Z,99.90
2019-01-27T06:27:26.274Z,99.90
2019-01-27T06:29:54.244Z,99.90
2019-01-27T06:32:39.905Z,99.90
2019-01-27T06:35:09.642Z,99.90
2019-01-27T06:37:37.709Z,99.90
2019-01-27T06:40:05.679Z,99.90
2019-01-27T06:42:33.756Z,99.90
2019-01-27T06:45:02.026Z,99.90
2019-01-27T06:47:30.098Z,99.90
2019-01-27T06:49:58.070Z,99.90
2019-01-27T06:52:26.037Z,99.90
2019-01-27T06:54:54.014Z,99.90
2019-01-27T06:57:21.980Z,99.90
2019-01-27T07:00:19.385Z,99.90
2019-01-27T07:02:53.117Z,99.90
2019-01-27T07:05:29.098Z,99.90
2019-01-27T07:08:06.205Z,99.90
2019-01-27T07:10:57.624Z,99.90
2019-01-27T07:13:41.956Z,99.90
2019-01-27T07:16:37.774Z,99.90
2019-01-27T07:19:16.583Z,99.90
2019-01-27T07:22:03.513Z,99.90
2019-01-27T07:24:50.427Z,99.90
2019-01-27T07:27:49.603Z,99.90
2019-01-27T07:30:49.423Z,99.90
2019-01-27T07:33:37.272Z,99.90
2019-01-27T07:36:31.020Z,99.90
2019-01-27T07:39:20.631Z,99.90
2019-01-27T07:41:53.801Z,99.50
2019-01-27T07:44:40.632Z,98.50
2019-01-27T07:47:30.518Z,97.90
2019-01-27T07:50:26.339Z,97.70
2019-01-27T07:53:16.225Z,97.50
2019-01-27T07:56:09.148Z,97.60
2019-01-27T07:58:46.237Z,97.40
2019-01-27T08:01:22.217Z,96.70
2019-01-27T08:04:10.783Z,96.70
2019-01-27T08:06:56.712Z,96.10
2019-01-27T08:09:33.864Z,95.90
2019-01-27T08:12:24.878Z,95.80
2019-01-27T08:15:08.182Z,95.70
2019-01-27T08:17:58.066Z,95.60
2019-01-27T08:20:44.807Z,96.00
2019-01-27T08:23:37.550Z,95.80
2019-01-27T08:26:16.664Z,95.70
2019-01-27T08:28:58.835Z,94.90
2019-01-27T08:31:42.885Z,93.90
2019-01-27T08:34:29.595Z,93.20
2019-01-27T08:37:31.581Z,92.80
2019-01-27T08:40:33.634Z,91.90
2019-01-27T08:43:24.463Z,90.00
2019-01-27T08:45:59.594Z,83.30
2019-01-27T08:48:28.519Z,80.60
2019-01-27T08:50:57.614Z,79.30
2019-01-27T08:53:25.651Z,77.40
2019-01-27T08:55:53.622Z,77.20
2019-01-27T08:58:21.595Z,75.30
2019-01-27T09:00:57.777Z,74.20
2019-01-27T09:03:48.353Z,73.50
2019-01-27T09:06:44.585Z,73.60
2019-01-27T09:09:37.437Z,75.00
2019-01-27T09:12:24.146Z,74.80
2019-01-27T09:15:11.163Z,76.50
2019-01-27T09:18:03.562Z,78.20
2019-01-27T09:20:44.345Z,77.70
2019-01-27T09:23:31.166Z,74.90
2019-01-27T09:26:21.068Z,71.00
2019-01-27T09:29:10.726Z,64.80
2019-01-27T09:31:57.663Z,61.80
2019-01-27T09:34:53.606Z,56.90
2019-01-27T09:37:45.802Z,53.70
2019-01-27T09:40:25.673Z,51.70
2019-01-27T09:43:19.730Z,51.90
2019-01-27T09:46:05.525Z,51.40
2019-01-27T09:48:56.858Z,49.90
2019-01-27T09:51:43.776Z,49.00
2019-01-27T09:54:21.224Z,46.20
2019-01-27T09:57:08.075Z,45.10
2019-01-27T09:59:57.858Z,42.60
2019-01-27T10:02:44.873Z,39.40
2019-01-27T10:05:24.412Z,36.70
2019-01-27T10:08:10.205Z,32.50
2019-01-27T10:10:55.682Z,32.80
2019-01-27T10:13:30.390Z,32.60
2019-01-27T10:16:14.562Z,31.50
2019-01-27T10:19:04.134Z,31.70
2019-01-27T10:21:49.792Z,30.00
2019-01-27T10:24:29.256Z,30.00
2019-01-27T10:27:12.049Z,30.10
2019-01-27T10:30:08.613Z,29.50
2019-01-27T10:33:04.436Z,29.10
2019-01-27T10:35:56.958Z,28.90
2019-01-27T10:38:58.853Z,27.60
2019-01-27T10:41:47.062Z,28.10
2019-01-27T10:44:32.444Z,26.60
2019-01-27T10:47:31.342Z,27.30
2019-01-27T10:50:07.470Z,27.20
2019-01-27T10:52:55.931Z,27.10
2019-01-27T10:55:54.709Z,26.40
2019-01-27T10:58:41.427Z,26.60
2019-01-27T11:01:26.609Z,26.30
2019-01-27T11:04:12.169Z,26.10
2019-01-27T11:07:13.919Z,26.10
2019-01-27T11:10:19.033Z,25.30
2019-01-27T11:13:04.569Z,25.10
2019-01-27T11:15:50.516Z,25.00
2019-01-27T11:18:35.199Z,25.20
2019-01-27T11:21:21.919Z,25.10
2019-01-27T11:24:07.130Z,25.90
2019-01-27T11:26:57.244Z,25.10
2019-01-27T11:29:48.283Z,27.00
2019-01-27T11:32:33.617Z,27.80
2019-01-27T11:35:17.233Z,29.00
2019-01-27T11:38:03.942Z,30.10
2019-01-27T11:41:00.211Z,31.40
2019-01-27T11:43:45.578Z,31.20
2019-01-27T11:46:41.382Z,31.90
2019-01-27T11:49:17.436Z,33.10
2019-01-27T11:51:58.822Z,33.90
2019-01-27T11:54:26.803Z,34.30
2019-01-27T11:56:54.781Z,35.00
2019-01-27T11:59:22.938Z,34.60
2019-01-27T12:01:51.233Z,36.60
2019-01-27T12:04:19.508Z,35.70
2019-01-27T12:06:47.787Z,36.20
2019-01-27T12:09:16.169Z,36.90
2019-01-27T12:11:44.235Z,35.60
2019-01-27T12:14:12.515Z,36.80
2019-01-27T12:16:40.584Z,37.30
2019-01-27T12:19:08.555Z,37.40
2019-01-27T12:21:36.527Z,37.40
2019-01-27T12:24:04.671Z,36.20
2019-01-27T12:26:32.872Z,36.80
2019-01-27T12:29:00.845Z,35.80
2019-01-27T12:31:28.812Z,35.50
2019-01-27T12:33:56.783Z,37.10
2019-01-27T12:36:25.739Z,37.80
2019-01-27T12:38:53.747Z,38.00
2019-01-27T12:41:21.961Z,37.80
2019-01-27T12:43:50.970Z,38.30
2019-01-27T12:46:19.289Z,38.10
2019-01-27T12:48:47.754Z,37.80
2019-01-27T12:51:15.819Z,38.10
2019-01-27T12:53:43.922Z,38.40
2019-01-27T12:56:13.647Z,38.00
2019-01-27T12:58:41.595Z,37.50
2019-01-27T13:01:09.565Z,38.10
2019-01-27T13:03:37.638Z,38.50
2019-01-27T13:06:07.563Z,38.10
2019-01-27T13:08:35.723Z,37.40
2019-01-27T13:11:05.682Z,37.10
2019-01-27T13:13:36.859Z,36.70
2019-01-27T13:16:03.218Z,37.20
2019-01-27T13:18:31.161Z,36.90
2019-01-27T13:21:00.914Z,37.00
2019-01-27T13:23:28.865Z,37.20
2019-01-27T13:25:56.834Z,37.20
2019-01-27T13:28:24.804Z,38.20
2019-01-27T13:30:52.774Z,38.30
2019-01-27T13:33:20.749Z,38.70
2019-01-27T13:35:48.716Z,38.70
2019-01-27T13:38:16.685Z,37.80
2019-01-27T13:40:44.969Z,38.20
2019-01-27T13:43:13.240Z,38.00
2019-01-27T13:45:41.409Z,38.20
2019-01-27T13:48:09.385Z,38.80
2019-01-27T13:50:37.429Z,39.20
2019-01-27T13:53:05.624Z,40.40
2019-01-27T13:55:33.806Z,41.00
2019-01-27T13:58:01.962Z,42.20
2019-01-27T14:00:30.045Z,42.10
2019-01-27T14:02:58.014Z,42.80
2019-01-27T14:05:25.974Z,43.50
2019-01-27T14:07:53.955Z,43.00
2019-01-27T14:10:22.235Z,43.70
2019-01-27T14:12:50.301Z,43.40
2019-01-27T14:15:18.374Z,43.10
2019-01-27T14:17:46.447Z,41.90
2019-01-27T14:20:14.621Z,41.00
2019-01-27T14:22:42.773Z,41.10
2019-01-27T14:25:10.910Z,41.70
2019-01-27T14:27:39.422Z,42.00
2019-01-27T14:30:07.831Z,42.40
2019-01-27T14:32:36.009Z,42.20
2019-01-27T14:35:03.972Z,40.50
2019-01-27T14:37:32.252Z,38.00
2019-01-27T14:40:00.241Z,35.40
2019-01-27T14:42:28.171Z,34.40
2019-01-27T14:44:57.694Z,33.40
2019-01-27T14:47:25.662Z,32.30
2019-01-27T14:49:53.634Z,33.00
2019-01-27T14:52:21.515Z,33.00
2019-01-27T14:54:49.680Z,33.00
2019-01-27T14:57:17.748Z,33.70
2019-01-27T14:59:45.810Z,35.50
2019-01-27T15:02:14.995Z,35.70
2019-01-27T15:04:43.166Z,36.20
2019-01-27T15:07:11.261Z,36.10
2019-01-27T15:09:39.370Z,34.90
2019-01-27T15:12:07.387Z,34.40
2019-01-27T15:14:35.287Z,34.80
2019-01-27T15:17:03.291Z,36.50
2019-01-27T15:19:31.752Z,36.90
2019-01-27T15:21:59.624Z,37.70
2019-01-27T15:24:27.551Z,38.40
2019-01-27T15:26:55.648Z,38.70
2019-01-27T15:29:23.705Z,38.70
2019-01-27T15:31:51.979Z,39.00
2019-01-27T15:34:20.466Z,39.10
2019-01-27T15:36:48.847Z,38.80
2019-01-27T15:39:16.886Z,39.40
2019-01-27T15:41:47.440Z,39.40
2019-01-27T15:44:17.468Z,39.90
2019-01-27T15:46:47.039Z,40.20
2019-01-27T15:49:15.238Z,40.60
2019-01-27T15:51:43.311Z,40.70
2019-01-27T15:54:11.280Z,40.80
2019-01-27T15:56:40.420Z,41.70
2019-01-27T15:59:08.459Z,41.50
2019-01-27T16:01:36.384Z,42.10
2019-01-27T16:04:04.432Z,42.30
2019-01-27T16:06:32.400Z,42.90
2019-01-27T16:09:00.332Z,43.00
2019-01-27T16:11:28.272Z,43.20
2019-01-27T16:13:56.199Z,43.30
2019-01-27T16:16:24.180Z,43.60
2019-01-27T16:18:58.657Z,43.80
2019-01-27T16:21:21.838Z,44.30
2019-01-27T16:23:59.117Z,44.40
2019-01-27T16:26:27.676Z,44.60
2019-01-27T16:28:55.972Z,45.00
2019-01-27T16:31:46.171Z,45.10
2019-01-27T16:34:44.926Z,45.20
2019-01-27T16:37:13.331Z,45.20
2019-01-27T16:39:41.494Z,45.50
2019-01-27T16:42:10.661Z,45.60
2019-01-27T16:44:38.669Z,45.90
2019-01-27T16:47:06.741Z,45.80
2019-01-27T16:49:34.767Z,45.70
2019-01-27T16:52:02.812Z,45.80
2019-01-27T16:54:30.848Z,46.00
2019-01-27T16:56:58.919Z,45.90
2019-01-27T16:59:26.892Z,46.50
2019-01-27T17:01:58.946Z,46.60
2019-01-27T17:04:24.726Z,47.20
2019-01-27T17:06:52.950Z,46.80
2019-01-27T17:09:21.120Z,46.90
2019-01-27T17:11:49.278Z,47.10
2019-01-27T17:14:17.570Z,47.10
2019-01-27T17:16:45.649Z,47.50
2019-01-27T17:19:13.611Z,47.60
2019-01-27T17:21:41.582Z,47.70
2019-01-27T17:24:09.584Z,48.00
2019-01-27T17:26:37.624Z,48.30
2019-01-27T17:29:05.695Z,48.10
2019-01-27T17:31:33.767Z,48.30
2019-01-27T17:34:01.841Z,48.40
2019-01-27T17:36:29.807Z,48.20
2019-01-27T17:38:57.879Z,49.00
2019-01-27T17:41:25.829Z,48.60
2019-01-27T17:43:55.539Z,48.40
2019-01-27T17:46:23.531Z,48.50
2019-01-27T17:48:52.113Z,48.60
2019-01-27T17:51:20.286Z,48.80
2019-01-27T17:53:52.336Z,48.80
2019-01-27T17:56:20.628Z,48.70
2019-01-27T17:59:11.433Z,49.70
2019-01-27T18:02:00.600Z,49.30
2019-01-27T18:05:00.582Z,49.90
2019-01-27T18:07:50.922Z,50.10
2019-01-27T18:10:43.669Z,50.30
2019-01-27T18:13:38.372Z,50.30
2019-01-27T18:16:09.300Z,50.80
2019-01-27T18:18:37.475Z,50.70
2019-01-27T18:21:05.753Z,50.90
2019-01-27T18:23:34.131Z,51.00
2019-01-27T18:26:02.303Z,51.10
2019-01-27T18:28:31.478Z,51.20
2019-01-27T18:30:59.675Z,51.10
2019-01-27T18:33:28.724Z,51.20
2019-01-27T18:35:56.741Z,51.40
2019-01-27T18:38:24.890Z,51.20
2019-01-27T18:40:54.117Z,51.50
2019-01-27T18:43:22.505Z,51.40
2019-01-27T18:45:50.564Z,51.40
2019-01-27T18:48:18.635Z,51.50
2019-01-27T18:50:46.807Z,51.70
2019-01-27T18:53:29.504Z,51.60
2019-01-27T18:56:16.539Z,51.60
2019-01-27T18:59:09.905Z,51.00
2019-01-27T19:02:03.066Z,50.80
2019-01-27T19:04:54.777Z,51.00
2019-01-27T19:07:28.684Z,51.20
2019-01-27T19:10:09.527Z,51.40
2019-01-27T19:12:52.792Z,51.50
2019-01-27T19:15:45.316Z,51.80
2019-01-27T19:18:31.825Z,51.50
2019-01-27T19:21:24.702Z,51.30
2019-01-27T19:24:14.279Z,51.40
2019-01-27T19:27:07.129Z,52.20
2019-01-27T19:29:54.043Z,51.80
2019-01-27T19:32:48.726Z,51.70
2019-01-27T19:35:32.786Z,51.70
2019-01-27T19:38:18.470Z,51.60
2019-01-27T19:41:17.135Z,51.60
2019-01-27T19:44:06.724Z,52.20
2019-01-27T19:46:52.422Z,51.70
2019-01-27T19:49:38.209Z,51.80
2019-01-27T19:52:23.995Z,51.80
2019-01-27T19:55:13.656Z,52.00
2019-01-27T19:57:53.012Z,52.00
2019-01-27T20:00:38.593Z,52.00
2019-01-27T20:03:25.083Z,52.30
2019-01-27T20:06:14.675Z,52.60
2019-01-27T20:09:03.205Z,52.80
2019-01-27T20:11:49.010Z,52.50
2019-01-27T20:14:40.739Z,52.50
2019-01-27T20:17:21.630Z,52.50
2019-01-27T20:19:54.990Z,52.60
2019-01-27T20:22:34.838Z,53.00
2019-01-27T20:25:33.650Z,53.00
2019-01-27T20:28:20.459Z,53.60
2019-01-27T20:31:22.730Z,53.40
2019-01-27T20:34:09.219Z,53.20
2019-01-27T20:37:08.947Z,53.50
2019-01-27T20:40:01.780Z,53.40
2019-01-27T20:42:51.380Z,53.30
2019-01-27T20:45:38.087Z,53.80
2019-01-27T20:48:33.982Z,53.20
2019-01-27T20:51:10.454Z,53.30
2019-01-27T20:53:57.775Z,52.80
2019-01-27T20:56:43.283Z,52.70
2019-01-27T20:59:25.588Z,52.80
2019-01-27T21:02:02.794Z,53.00
2019-01-27T21:04:56.428Z,53.10
2019-01-27T21:07:30.453Z,52.80
2019-01-27T21:10:14.876Z,53.10
2019-01-27T21:13:17.287Z,52.70
2019-01-27T21:15:54.527Z,52.70
2019-01-27T21:18:45.191Z,52.70
2019-01-27T21:21:15.753Z,52.80
2019-01-27T21:23:43.706Z,53.10
2019-01-27T21:26:12.343Z,53.10
2019-01-27T21:28:40.207Z,53.40
2019-01-27T21:31:08.641Z,53.50
2019-01-27T21:33:36.906Z,53.40
2019-01-27T21:36:04.893Z,53.80
2019-01-27T21:38:32.766Z,53.90
2019-01-27T21:41:00.642Z,54.00
2019-01-27T21:43:28.668Z,54.10
2019-01-27T21:45:56.867Z,54.00
2019-01-27T21:48:29.327Z,54.40
2019-01-27T21:50:57.810Z,55.50
2019-01-27T21:53:25.755Z,55.50
2019-01-27T21:55:54.629Z,55.60
2019-01-27T21:58:25.529Z,55.90
2019-01-27T22:00:54.170Z,55.90
2019-01-27T22:03:22.772Z,56.20
2019-01-27T22:05:52.251Z,56.40
2019-01-27T22:08:20.203Z,56.40
2019-01-27T22:10:49.971Z,56.80
2019-01-27T22:13:18.290Z,56.50
2019-01-27T22:15:46.285Z,56.50
2019-01-27T22:18:14.258Z,56.80
2019-01-27T22:20:42.502Z,57.50
2019-01-27T22:23:10.707Z,56.80
2019-01-27T22:25:38.775Z,57.20
2019-01-27T22:28:06.847Z,57.20
2019-01-27T22:30:34.817Z,57.40
2019-01-27T22:33:02.895Z,57.60
2019-01-27T22:35:30.839Z,58.00
2019-01-27T22:37:59.135Z,57.50
2019-01-27T22:40:27.563Z,57.60
2019-01-27T22:42:55.688Z,58.00
2019-01-27T22:45:23.945Z,58.00
2019-01-27T22:47:52.141Z,57.30
2019-01-27T22:50:22.229Z,57.50
2019-01-27T22:52:50.337Z,57.60
2019-01-27T22:55:18.301Z,58.20
2019-01-27T22:57:46.366Z,57.50
2019-01-27T23:00:14.443Z,57.10
2019-01-27T23:02:42.485Z,57.20
2019-01-27T23:05:10.588Z,57.20
2019-01-27T23:07:38.762Z,57.50
2019-01-27T23:10:06.706Z,57.40
2019-01-27T23:12:34.917Z,57.60
2019-01-27T23:15:02.955Z,57.60
2019-01-27T23:17:30.945Z,57.90
2019-01-27T23:19:59.106Z,57.70
2019-01-27T23:22:27.193Z,57.90
2019-01-27T23:24:55.246Z,57.90
2019-01-27T23:27:23.210Z,57.90
2019-01-27T23:29:51.309Z,58.20
2019-01-27T23:32:19.250Z,58.20
2019-01-27T23:34:47.245Z,58.40
2019-01-27T23:37:15.220Z,58.30
2019-01-27T23:39:43.184Z,58.80
2019-01-27T23:42:11.355Z,58.70
2019-01-27T23:44:39.328Z,59.00
2019-01-27T23:47:07.607Z,59.30
2019-01-27T23:49:35.570Z,59.10
2019-01-27T23:52:03.848Z,59.10
2019-01-27T23:54:32.126Z,59.30
2019-01-27T23:57:00.095Z,59.30
2019-01-27T23:59:28.065Z,59.40
